TimeCDT,TemperatureF,Dew PointF,Humidity,Sea Level PressureIn,VisibilityMPH,Wind Direction,Wind SpeedMPH,Gust SpeedMPH,PrecipitationIn,Events,Conditions,WindDirDegrees,DateUTC
12:15 AM,35.8,24.1,62,30.16,10.0,Calm,Calm,-,N/A,,Clear,0,2013-04-02 05:15:00
12:35 AM,34.7,24.1,65,30.17,10.0,Calm,Calm,-,N/A,,Clear,0,2013-04-02 05:35:00
12:55 AM,34.2,23.9,66,30.17,10.0,Calm,Calm,-,N/A,,Clear,0,2013-04-02 05:55:00
1:15 AM,33.8,23.9,67,30.17,10.0,Calm,Calm,-,N/A,,Clear,0,2013-04-02 06:15:00
1:35 AM,32.4,23.9,71,30.17,10.0,Calm,Calm,-,N/A,,Clear,0,2013-04-02 06:35:00
1:55 AM,33.1,23.2,67,30.17,10.0,North,3.5,-,N/A,,Clear,360,2013-04-02 06:55:00
2:15 AM,33.6,22.6,64,30.17,10.0,North,3.5,-,N/A,,Clear,360,2013-04-02 07:15:00
2:35 AM,33.8,22.3,63,30.17,10.0,North,3.5,-,N/A,,Clear,360,2013-04-02 07:35:00
2:55 AM,33.4,22.6,65,30.18,10.0,Calm,Calm,-,N/A,,Clear,0,2013-04-02 07:55:00
3:15 AM,32.5,22.6,67,30.18,10.0,Calm,Calm,-,N/A,,Clear,0,2013-04-02 08:15:00
3:35 AM,31.6,22.6,69,30.19,10.0,Calm,Calm,-,N/A,,Clear,0,2013-04-02 08:35:00
3:55 AM,31.6,22.8,70,30.20,10.0,Calm,Calm,-,N/A,,Clear,0,2013-04-02 08:55:00
4:15 AM,29.7,22.8,76,30.20,10.0,Calm,Calm,-,N/A,,Clear,0,2013-04-02 09:15:00
4:55 AM,29.3,26.8,90,30.21,10.0,Calm,Calm,-,N/A,,Clear,0,2013-04-02 09:55:00
5:15 AM,29.8,25.0,82,30.21,10.0,Calm,Calm,-,N/A,,Clear,0,2013-04-02 10:15:00
5:35 AM,31.5,22.6,70,30.21,10.0,NNE,3.5,-,N/A,,Clear,20,2013-04-02 10:35:00
5:55 AM,31.5,23.0,71,30.22,10.0,Calm,Calm,-,N/A,,Clear,0,2013-04-02 10:55:00
6:15 AM,28.4,27.1,95,30.23,10.0,Calm,Calm,-,N/A,,Clear,0,2013-04-02 11:15:00
6:35 AM,28.2,25.9,91,30.24,10.0,Calm,Calm,-,N/A,,Clear,0,2013-04-02 11:35:00
6:55 AM,28.2,23.4,82,30.26,10.0,Calm,Calm,-,N/A,,Clear,0,2013-04-02 11:55:00
7:15 AM,29.1,24.1,81,30.26,10.0,Calm,Calm,-,N/A,,Clear,0,2013-04-02 12:15:00
7:35 AM,32.0,23.5,71,30.27,10.0,Calm,Calm,-,N/A,,Clear,0,2013-04-02 12:35:00
7:55 AM,35.2,23.4,62,30.27,10.0,NNE,4.6,-,N/A,,Clear,30,2013-04-02 12:55:00
8:15 AM,37.4,22.5,55,30.28,10.0,NE,4.6,-,N/A,,Clear,50,2013-04-02 13:15:00
8:35 AM,38.8,22.3,51,30.28,10.0,NE,4.6,-,N/A,,Clear,50,2013-04-02 13:35:00
8:55 AM,39.9,23.0,51,30.29,10.0,ENE,5.8,-,N/A,,Clear,70,2013-04-02 13:55:00
9:15 AM,41.0,21.4,46,30.28,10.0,ENE,3.5,-,N/A,,Clear,70,2013-04-02 14:15:00
9:35 AM,41.7,20.3,42,30.28,10.0,NE,4.6,-,N/A,,Clear,40,2013-04-02 14:35:00
9:55 AM,42.3,20.7,42,30.28,10.0,ENE,8.1,-,N/A,,Clear,60,2013-04-02 14:55:00
10:15 AM,42.4,19.4,40,30.29,10.0,North,5.8,-,N/A,,Clear,10,2013-04-02 15:15:00
10:35 AM,43.2,19.4,39,30.29,10.0,North,5.8,-,N/A,,Clear,350,2013-04-02 15:35:00
10:55 AM,43.7,19.0,37,30.28,10.0,Calm,Calm,-,N/A,,Clear,0,2013-04-02 15:55:00
11:15 AM,44.4,19.0,36,30.27,10.0,NNE,5.8,-,N/A,,Clear,20,2013-04-02 16:15:00
11:35 AM,45.7,19.9,36,30.27,10.0,NW,4.6,-,N/A,,Clear,320,2013-04-02 16:35:00
11:55 AM,46.2,19.4,34,30.26,10.0,North,4.6,-,N/A,,Clear,360,2013-04-02 16:55:00
12:15 PM,46.9,19.2,33,30.26,10.0,SW,4.6,-,N/A,,Clear,220,2013-04-02 17:15:00
12:35 PM,48.2,20.3,33,30.25,10.0,Calm,Calm,-,N/A,,Clear,0,2013-04-02 17:35:00
12:55 PM,48.9,18.3,30,30.24,10.0,Calm,Calm,-,N/A,,Clear,0,2013-04-02 17:55:00
1:15 PM,48.9,17.8,29,30.23,10.0,Calm,Calm,-,N/A,,Clear,0,2013-04-02 18:15:00
1:35 PM,50.0,17.4,28,30.22,10.0,ESE,6.9,-,N/A,,Clear,110,2013-04-02 18:35:00
1:55 PM,50.5,16.7,26,30.21,10.0,WNW,5.8,-,N/A,,Clear,300,2013-04-02 18:55:00
2:15 PM,51.4,16.0,25,30.22,10.0,WSW,5.8,-,N/A,,Clear,240,2013-04-02 19:15:00
2:35 PM,50.5,16.9,26,30.22,10.0,WNW,6.9,-,N/A,,Clear,290,2013-04-02 19:35:00
2:55 PM,49.8,17.4,28,30.21,10.0,WSW,6.9,-,N/A,,Clear,240,2013-04-02 19:55:00
3:15 PM,50.4,18.3,28,30.21,10.0,SW,6.9,-,N/A,,Clear,230,2013-04-02 20:15:00
3:35 PM,50.9,18.7,28,30.21,10.0,WSW,9.2,-,N/A,,Clear,250,2013-04-02 20:35:00
3:55 PM,50.4,19.0,29,30.21,10.0,SW,6.9,-,N/A,,Clear,230,2013-04-02 20:55:00
4:15 PM,50.2,18.0,28,30.20,10.0,SSW,6.9,-,N/A,,Clear,210,2013-04-02 21:15:00
4:35 PM,49.8,16.2,26,30.20,10.0,SW,5.8,-,N/A,,Clear,230,2013-04-02 21:35:00
4:55 PM,49.8,18.0,28,30.19,10.0,WSW,10.4,-,N/A,,Clear,240,2013-04-02 21:55:00
5:15 PM,49.3,19.4,31,30.20,10.0,WSW,8.1,-,N/A,,Clear,250,2013-04-02 22:15:00
5:35 PM,48.7,19.4,31,30.20,10.0,West,6.9,-,N/A,,Clear,260,2013-04-02 22:35:00
5:55 PM,48.2,18.9,31,30.20,10.0,WSW,6.9,-,N/A,,Clear,250,2013-04-02 22:55:00
6:15 PM,47.8,18.1,31,30.20,10.0,West,4.6,-,N/A,,Clear,260,2013-04-02 23:15:00
6:35 PM,47.3,18.7,32,30.21,10.0,West,5.8,-,N/A,,Clear,260,2013-04-02 23:35:00
6:55 PM,46.4,18.7,33,30.21,10.0,West,4.6,-,N/A,,Clear,260,2013-04-02 23:55:00
7:15 PM,45.5,19.6,36,30.21,10.0,West,5.8,-,N/A,,Clear,270,2013-04-03 00:15:00
7:35 PM,44.4,20.5,39,30.21,10.0,WNW,5.8,-,N/A,,Clear,290,2013-04-03 00:35:00
7:55 PM,43.7,19.9,39,30.22,10.0,NW,4.6,-,N/A,,Clear,310,2013-04-03 00:55:00
8:15 PM,42.8,19.9,40,30.22,10.0,Calm,Calm,-,N/A,,Clear,0,2013-04-03 01:15:00
8:35 PM,41.4,20.7,44,30.23,10.0,Calm,Calm,-,N/A,,Clear,0,2013-04-03 01:35:00
8:55 PM,41.0,19.8,43,30.24,10.0,Calm,Calm,-,N/A,,Clear,0,2013-04-03 01:55:00
9:15 PM,40.6,19.2,42,30.24,10.0,NW,3.5,-,N/A,,Clear,310,2013-04-03 02:15:00
9:35 PM,40.1,19.2,43,30.25,10.0,NW,3.5,-,N/A,,Clear,310,2013-04-03 02:35:00
9:55 PM,39.2,19.9,46,30.25,10.0,Calm,Calm,-,N/A,,Clear,0,2013-04-03 02:55:00
10:15 PM,39.0,21.6,50,30.26,10.0,NNW,3.5,-,N/A,,Clear,340,2013-04-03 03:15:00
10:35 PM,38.5,20.1,48,30.25,10.0,North,4.6,-,N/A,,Clear,350,2013-04-03 03:35:00
10:55 PM,38.1,18.5,45,30.26,10.0,North,5.8,-,N/A,,Clear,360,2013-04-03 03:55:00
11:15 PM,38.1,17.4,43,30.26,10.0,North,4.6,-,N/A,,Clear,10,2013-04-03 04:15:00
11:35 PM,38.1,17.2,43,30.26,10.0,North,4.6,-,N/A,,Clear,360,2013-04-03 04:35:00
11:55 PM,36.5,18.5,48,30.27,10.0,North,4.6,-,N/A,,Clear,360,2013-04-03 04:55:00